Time;durP1;ratioP1;P1;durP2;ratioP2;P2;SDS_P1;SDS_P2;PMS_P1;PMS_P2;Temp;Humidity;BMP_temperature;BMP_pressure;BME280_temperature;BME280_humidity;BME280_pressure;Samples;Min_cycle;Max_cycle;Signal;HPM_P1;HPM_P2
2021/12/26 00:01:34;;;;;;;32.23;13.10;;;;;;;3.42;45.43;99815.58;1914669;101;25774;-82
2021/12/26 00:08:56;;;;;;;26.23;11.35;;;;;;;3.37;45.35;99810.62;1896533;101;25944;-81
2021/12/26 00:12:20;;;;;;;30.05;12.88;;;;;;;3.34;45.34;99815.63;1907835;101;26121;-82
2021/12/26 00:15:45;;;;;;;26.57;12.10;;;;;;;3.32;45.33;99818.16;1906839;101;25982;-80
2021/12/26 00:19:07;;;;;;;24.32;11.20;;;;;;;3.30;45.30;99810.34;1905162;101;25970;-84
2021/12/26 00:22:39;;;;;;;28.05;12.43;;;;;;;3.28;45.28;99819.72;1911002;102;25880;-80
2021/12/26 00:26:31;;;;;;;26.73;10.68;;;;;;;3.26;45.27;99823.91;1925244;99;25797;-81
2021/12/26 00:30:14;;;;;;;26.33;11.30;;;;;;;3.23;45.25;99832.79;1927119;98;25867;-86
2021/12/26 00:33:36;;;;;;;21.60;11.33;;;;;;;3.22;45.22;99825.89;1905288;100;26020;-81
2021/12/26 00:37:01;;;;;;;24.67;11.53;;;;;;;3.20;45.20;99822.35;1906028;102;26006;-86
2021/12/26 00:40:50;;;;;;;24.80;10.35;;;;;;;3.17;45.18;99823.50;1908770;101;26458;-81
2021/12/26 00:44:20;;;;;;;24.85;12.98;;;;;;;3.16;45.19;99817.01;1908213;101;25370;-85
2021/12/26 00:48:06;;;;;;;24.85;11.65;;;;;;;3.15;45.19;99816.55;1883007;103;25864;-83
2021/12/26 00:51:40;;;;;;;27.48;11.63;;;;;;;3.11;45.17;99818.52;1962832;99;25953;-83
2021/12/26 00:55:24;;;;;;;26.30;11.08;;;;;;;3.08;45.18;99821.42;1939390;98;26062;-81
2021/12/26 00:58:58;;;;;;;27.90;12.37;;;;;;;3.06;45.15;99815.72;1957195;98;25672;-82
2021/12/26 01:02:55;;;;;;;18.90;10.78;;;;;;;3.05;45.16;99824.27;1952063;96;25811;-82
2021/12/26 01:06:41;;;;;;;25.23;12.15;;;;;;;3.04;45.15;99836.27;1953385;96;25790;-80
2021/12/26 01:10:16;;;;;;;24.23;10.88;;;;;;;3.04;45.14;99835.39;1922136;101;26188;-82
2021/12/26 01:13:48;;;;;;;25.65;11.33;;;;;;;3.02;45.12;99831.85;1918531;101;26147;-80
2021/12/26 01:17:27;;;;;;;22.27;11.45;;;;;;;3.02;45.14;99834.42;1906030;102;26003;-80
2021/12/26 01:21:24;;;;;;;23.95;10.93;;;;;;;3.01;45.13;99828.81;1937478;99;25877;-80
2021/12/26 01:25:00;;;;;;;22.73;11.38;;;;;;;2.99;45.12;99829.14;1891475;101;25803;-86
2021/12/26 01:28:40;;;;;;;19.07;10.95;;;;;;;2.97;45.10;99827.80;1927121;100;25897;-85
2021/12/26 01:32:10;;;;;;;22.82;10.78;;;;;;;2.97;45.13;99825.60;1889467;102;25747;-79
2021/12/26 01:35:52;;;;;;;21.17;10.45;;;;;;;2.96;45.11;99829.00;1888514;101;25880;-81
2021/12/26 01:39:37;;;;;;;24.87;11.88;;;;;;;2.96;45.12;99829.88;1873792;102;25984;-79
2021/12/26 01:43:18;;;;;;;23.50;11.20;;;;;;;2.95;45.13;99824.67;1891034;100;25897;-81
2021/12/26 01:47:04;;;;;;;27.90;12.37;;;;;;;2.95;45.12;99827.25;1916008;100;26678;-85
2021/12/26 01:50:49;;;;;;;27.45;11.85;;;;;;;2.95;45.14;99823.38;1902084;100;25863;-81
2021/12/26 01:54:36;;;;;;;24.37;11.25;;;;;;;2.94;45.13;99821.62;1920915;100;25802;-83
2021/12/26 01:58:01;;;;;;;26.87;12.65;;;;;;;2.92;45.11;99825.81;1956890;98;25722;-84
2021/12/26 02:01:43;;;;;;;29.77;12.93;;;;;;;2.91;45.11;99834.36;1949282;98;25976;-84
2021/12/26 02:05:27;;;;;;;26.50;12.00;;;;;;;2.90;45.09;99838.60;1905429;102;25869;-83
2021/12/26 02:08:59;;;;;;;25.88;11.95;;;;;;;2.89;45.08;99844.58;1910575;99;26061;-83
2021/12/26 02:12:43;;;;;;;25.93;11.93;;;;;;;2.85;45.06;99836.23;1974603;97;25795;-81
2021/12/26 02:16:13;;;;;;;28.00;12.03;;;;;;;2.84;45.05;99838.35;1984346;98;25702;-80
2021/12/26 02:19:54;;;;;;;23.40;11.12;;;;;;;2.80;45.03;99833.47;1990819;94;26066;-83
2021/12/26 02:31:06;;;;;;;27.55;11.38;;;;;;;2.74;45.01;99827.16;1957491;99;25922;-80
2021/12/26 02:34:37;;;;;;;25.97;11.80;;;;;;;2.71;45.00;99832.16;1945209;98;25730;-80
2021/12/26 02:37:58;;;;;;;;;;;;;;;2.71;45.00;99831.75;1906525;100;25928;-82
2021/12/26 02:41:39;;;;;;;22.55;10.35;;;;;;;2.70;44.96;99836.81;1919844;101;26003;-79
2021/12/26 02:45:21;;;;;;;;;;;;;;;2.67;45.00;99843.13;1963867;98;25817;-81
2021/12/26 02:53:20;;;;;;;23.92;11.53;;;;;;;2.62;44.99;99852.31;2035190;95;25892;-79
2021/12/26 02:57:00;;;;;;;30.68;12.82;;;;;;;2.58;44.98;99853.87;1969371;97;25808;-79
2021/12/26 03:00:47;;;;;;;26.40;11.38;;;;;;;2.56;44.98;99848.63;1984994;97;25930;-80
2021/12/26 03:07:45;;;;;;;24.50;10.85;;;;;;;2.52;44.96;99845.86;1937253;99;25850;-80
2021/12/26 03:15:05;;;;;;;24.25;10.55;;;;;;;2.48;44.95;99849.98;1896380;102;25873;-79
2021/12/26 03:18:47;;;;;;;24.85;10.40;;;;;;;2.47;44.94;99846.94;1887143;103;25850;-86
2021/12/26 03:22:27;;;;;;;28.62;10.85;;;;;;;2.46;44.95;99855.85;1864092;104;25879;-81
2021/12/26 03:26:09;;;;;;;26.52;11.25;;;;;;;2.44;44.94;99853.22;1861660;105;25701;-82
2021/12/26 03:29:59;;;;;;;;;;;;;;;;;;;;;
2021/12/26 03:33:37;;;;;;;22.35;10.35;;;;;;;2.40;44.91;99853.89;1932989;101;25980;-81
2021/12/26 03:37:06;;;;;;;28.17;11.20;;;;;;;2.39;44.92;99847.38;1916446;101;26015;-85
2021/12/26 03:40:34;;;;;;;;;;;;;;;2.35;44.93;99856.22;1920249;102;26000;-80
2021/12/26 03:44:07;;;;;;;21.15;11.03;;;;;;;2.33;44.93;99855.29;1913502;101;25974;-79
2021/12/26 03:48:23;;;;;;;;;;;;;;;;;;;;;
2021/12/26 03:52:14;;;;;;;18.17;9.88;;;;;;;2.29;44.98;99859.78;1812605;101;25972;-80
2021/12/26 03:56:00;;;;;;;23.22;10.23;;;;;;;2.28;44.99;99853.30;1840210;104;25906;-80
2021/12/26 04:03:16;;;;;;;24.00;10.25;;;;;;;2.25;45.02;99859.17;1839062;104;26091;-81
2021/12/26 04:10:50;;;;;;;26.27;11.05;;;;;;;2.23;45.01;99864.66;1837596;104;31017;-79
2021/12/26 04:14:37;;;;;;;23.30;11.03;;;;;;;2.22;45.01;99863.28;1881280;103;25916;-79
2021/12/26 04:18:34;;;;;;;22.67;9.48;;;;;;;2.19;45.03;99856.30;1881769;103;25921;-83
2021/12/26 04:22:02;;;;;;;19.25;9.45;;;;;;;2.20;45.00;99863.22;1908119;99;26899;-85
2021/12/26 04:25:47;;;;;;;28.85;10.80;;;;;;;2.17;45.02;99859.21;1924591;101;25847;-80
2021/12/26 04:29:33;;;;;;;;;;;;;;;;;;;;;
2021/12/26 04:32:56;;;;;;;21.62;10.88;;;;;;;2.13;45.02;99867.59;1917324;101;25881;-85
2021/12/26 04:36:31;;;;;;;21.37;11.60;;;;;;;2.13;45.02;99871.45;1876519;104;32644;-82
2021/12/26 04:40:51;;;;;;;21.20;10.70;;;;;;;2.11;44.98;99864.05;1882500;102;25916;-79
2021/12/26 04:44:52;;;;;;;23.70;10.65;;;;;;;2.08;44.98;99858.34;1955560;98;25745;-82
2021/12/26 04:48:34;;;;;;;23.10;10.78;;;;;;;2.05;45.01;99861.17;1973287;98;25903;-80
2021/12/26 04:52:16;;;;;;;;;;;;;;;;;;;;;
2021/12/26 04:55:51;;;;;;;27.95;11.93;;;;;;;2.01;45.01;99864.41;1949447;100;26325;-87
2021/12/26 04:59:28;;;;;;;;;;;;;;;;;;;;;
2021/12/26 05:02:52;;;;;;;25.12;10.78;;;;;;;1.99;45.00;99865.63;1978547;98;25819;-79
2021/12/26 05:06:32;;;;;;;24.20;11.83;;;;;;;1.98;44.97;99871.97;1988520;96;25819;-80
2021/12/26 05:10:14;;;;;;;26.70;11.65;;;;;;;1.97;44.99;99872.78;2053113;93;25806;-80
2021/12/26 05:13:40;;;;;;;28.92;11.30;;;;;;;1.94;44.99;99876.08;2118196;92;25881;-80
2021/12/26 05:17:34;;;;;;;23.85;11.12;;;;;;;1.93;45.01;99878.17;2082888;93;25946;-81
2021/12/26 05:21:03;;;;;;;21.68;11.00;;;;;;;1.92;45.04;99884.51;2081012;93;25652;-81
2021/12/26 05:24:39;;;;;;;;;;;;;;;;;;;;;
2021/12/26 05:28:21;;;;;;;21.62;10.65;;;;;;;1.91;45.05;99884.04;2092911;92;25746;-82
2021/12/26 05:35:27;;;;;;;21.35;11.95;;;;;;;1.88;45.08;99885.64;2023816;95;25888;-81
2021/12/26 05:38:57;;;;;;;28.38;11.93;;;;;;;1.87;45.10;99894.16;2022616;96;25861;-84
2021/12/26 05:46:22;;;;;;;28.70;12.23;;;;;;;1.84;45.08;99896.58;1956563;99;25798;-85
2021/12/26 05:50:10;;;;;;;32.60;12.43;;;;;;;1.84;45.08;99899.14;1957712;100;25667;-81
2021/12/26 05:53:37;;;;;;;28.17;11.70;;;;;;;1.84;45.08;99912.00;1939435;100;25972;-80
2021/12/26 05:57:31;;;;;;;;;;;;;;;;;;;;;
2021/12/26 06:01:13;;;;;;;;;;;;;;;;;;;;;
2021/12/26 06:04:51;;;;;;;28.83;11.70;;;;;;;1.78;45.04;99897.55;1971919;98;25939;-80
2021/12/26 06:08:34;;;;;;;26.37;12.70;;;;;;;1.77;45.02;99897.08;1975554;97;25951;-80
2021/12/26 06:12:19;;;;;;;;;;;;;;;;;;;;;
2021/12/26 06:16:01;;;;;;;21.25;11.90;;;;;;;1.74;44.81;99918.76;1981778;97;25767;-81
2021/12/26 06:19:54;;;;;;;30.90;12.85;;;;;;;1.74;44.81;99918.76;1982198;97;25839;-85
2021/12/26 06:23:31;;;;;;;34.10;13.05;;;;;;;1.73;44.98;99922.14;1998463;96;26287;-81
2021/12/26 06:27:24;;;;;;;27.87;13.20;;;;;;;1.72;44.98;99919.48;1993398;97;26036;-83
2021/12/26 06:31:56;;;;;;;30.05;13.22;;;;;;;1.71;44.93;99923.73;1993443;97;25935;-82
2021/12/26 06:35:23;;;;;;;31.75;13.43;;;;;;;1.71;44.93;99939.56;1969237;97;25910;-81
2021/12/26 06:39:05;;;;;;;35.30;16.25;;;;;;;1.70;44.88;99937.41;1993489;95;26570;-86
2021/12/26 06:42:42;;;;;;;31.97;13.68;;;;;;;1.69;44.88;99939.50;1905452;100;26134;-83
2021/12/26 06:46:38;;;;;;;37.13;14.68;;;;;;;1.69;44.90;99947.59;1913177;100;26000;-84
2021/12/26 06:50:38;;;;;;;28.55;14.30;;;;;;;1.68;44.89;99955.70;1917865;100;25809;-87
2021/12/26 06:54:20;;;;;;;29.95;14.23;;;;;;;1.69;44.92;99959.15;1917351;101;26329;-83
2021/12/26 06:58:10;;;;;;;29.27;13.98;;;;;;;1.69;44.99;99956.20;1893456;101;25974;-83
2021/12/26 07:01:49;;;;;;;30.68;13.38;;;;;;;1.74;44.99;99962.86;2015898;94;25883;-81
2021/12/26 07:05:20;;;;;;;35.38;15.13;;;;;;;1.75;45.00;99955.20;2016826;95;25724;-81
2021/12/26 07:08:56;;;;;;;31.45;14.58;;;;;;;1.78;45.00;99952.80;2005305;95;26450;-80
2021/12/26 07:12:27;;;;;;;30.20;13.03;;;;;;;1.80;45.03;99964.06;2114078;91;26188;-81
2021/12/26 07:16:18;;;;;;;28.30;14.20;;;;;;;1.84;45.03;99967.66;2118747;91;25962;-86
2021/12/26 07:19:55;;;;;;;29.77;14.78;;;;;;;1.85;45.06;99975.44;2097183;90;25892;-82
2021/12/26 07:23:44;;;;;;;27.25;13.32;;;;;;;1.88;45.09;99978.58;2083698;93;25999;-85
2021/12/26 07:31:43;;;;;;;29.35;14.13;;;;;;;1.94;45.14;99980.59;2031499;95;25636;-85
2021/12/26 07:39:48;;;;;;;34.45;13.83;;;;;;;2.02;45.19;99990.85;2084750;92;25602;-79
2021/12/26 07:43:21;;;;;;;29.20;13.83;;;;;;;2.08;45.20;100003.62;2080847;92;25717;-82
2021/12/26 07:47:18;;;;;;;;;;;;;;;;;;;;;
2021/12/26 07:50:49;;;;;;;35.23;14.15;;;;;;;2.16;45.22;99998.89;2016497;94;25778;-83
2021/12/26 07:54:49;;;;;;;23.90;13.32;;;;;;;2.21;45.23;100001.27;1965631;97;25822;-83
2021/12/26 07:58:49;;;;;;;;;;;;;;;;;;;;;
2021/12/26 08:02:36;;;;;;;;;;;;;;;;;;;;;
2021/12/26 08:06:18;;;;;;;36.60;15.05;;;;;;;2.34;45.28;100011.38;1917287;101;25926;-82
2021/12/26 08:09:49;;;;;;;36.63;14.93;;;;;;;2.40;45.28;100007.33;1959660;98;26745;-82
2021/12/26 08:13:36;;;;;;;35.70;14.80;;;;;;;2.46;45.33;100016.65;1946203;98;25949;-83
2021/12/26 08:17:09;;;;;;;26.65;14.60;;;;;;;2.51;45.35;100020.34;1931101;98;25866;-86
2021/12/26 08:20:38;;;;;;;34.05;15.78;;;;;;;2.57;45.32;100015.10;1954688;99;26362;-86
2021/12/26 08:27:37;;;;;;;31.87;15.38;;;;;;;2.70;45.35;100009.25;1952104;100;25724;-83
2021/12/26 08:31:34;;;;;;;;;;;;;;;;;;;;;
2021/12/26 08:35:07;;;;;;;33.83;15.50;;;;;;;2.93;45.37;100021.55;1957581;99;25881;-84
2021/12/26 08:38:26;;;;;;;26.82;14.00;;;;;;;3.06;45.31;100016.59;2017079;96;25756;-83
2021/12/26 08:42:00;;;;;;;28.62;15.18;;;;;;;3.24;45.23;100024.29;1978517;98;25768;-80
2021/12/26 08:45:28;;;;;;;32.85;15.38;;;;;;;3.39;45.18;100024.14;1978323;98;35705;-80
2021/12/26 08:49:00;;;;;;;29.27;13.70;;;;;;;3.54;45.06;100026.13;1958935;97;25943;-81
2021/12/26 08:52:38;;;;;;;25.20;14.95;;;;;;;3.74;44.99;100033.47;2043968;94;26195;-81
2021/12/26 08:56:18;;;;;;;26.73;14.30;;;;;;;3.98;44.86;100037.55;2112442;90;26299;-82
2021/12/26 08:59:46;;;;;;;28.02;14.28;;;;;;;4.48;44.51;100046.61;2089984;92;25822;-81
2021/12/26 09:03:09;;;;;;;35.20;15.05;;;;;;;4.70;44.21;100037.66;2020819;94;26093;-80
2021/12/26 09:06:32;;;;;;;29.48;14.80;;;;;;;4.80;44.00;100039.34;2050010;93;26001;-81
2021/12/26 09:10:04;;;;;;;30.82;14.80;;;;;;;4.84;43.88;100056.31;2059017;93;26402;-81
2021/12/26 09:13:46;;;;;;;30.10;14.80;;;;;;;4.80;43.86;100049.26;2051141;96;25778;-80
2021/12/26 09:17:23;;;;;;;30.05;15.35;;;;;;;4.75;43.78;100055.92;1980450;97;25924;-82
2021/12/26 09:20:49;;;;;;;29.12;13.85;;;;;;;4.69;43.83;100047.91;1998607;97;25785;-80
2021/12/26 09:24:35;;;;;;;25.00;14.58;;;;;;;4.66;43.85;100046.52;2049507;95;25934;-83
2021/12/26 09:28:16;;;;;;;29.48;14.55;;;;;;;4.63;43.86;100039.94;1987147;97;25764;-80
2021/12/26 09:31:56;;;;;;;29.50;14.63;;;;;;;4.60;43.94;100039.80;2072644;94;26137;-81
2021/12/26 09:35:14;;;;;;;24.05;13.72;;;;;;;4.61;43.99;100034.69;2071273;94;25953;-80
2021/12/26 09:39:14;;;;;;;25.23;14.78;;;;;;;4.70;44.00;100027.34;2090987;93;26483;-79
2021/12/26 09:43:12;;;;;;;25.08;14.05;;;;;;;4.84;43.95;100031.77;2053706;94;26427;-81
2021/12/26 09:46:44;;;;;;;28.85;14.95;;;;;;;5.19;43.78;100029.71;2006313;95;25817;-80
2021/12/26 09:50:16;;;;;;;29.00;14.30;;;;;;;5.57;43.54;100039.35;1996857;96;25817;-81
2021/12/26 09:53:58;;;;;;;33.02;16.27;;;;;;;5.91;43.04;100023.41;1994693;96;26515;-83
2021/12/26 10:01:44;;;;;;;35.63;16.07;;;;;;;6.34;41.75;100039.19;1860618;103;25963;-81
2021/12/26 10:05:25;;;;;;;24.40;14.23;;;;;;;7.24;41.45;100038.72;1882810;102;25895;-84
2021/12/26 10:09:02;;;;;;;25.95;14.93;;;;;;;8.01;40.66;100048.39;1952666;98;26650;-84
2021/12/26 10:12:34;;;;;;;29.77;15.35;;;;;;;8.40;40.12;100043.43;1960279;99;25906;-83
2021/12/26 10:19:25;;;;;;;25.00;15.03;;;;;;;8.44;39.70;100037.50;1908711;100;26157;-84
2021/12/26 10:27:16;;;;;;;28.38;15.05;;;;;;;8.27;39.61;100050.00;1864127;105;25868;-84
2021/12/26 10:31:04;;;;;;;;;;;;;;;;;;;;;
2021/12/26 10:34:44;;;;;;;28.77;14.68;;;;;;;7.93;39.62;100052.45;1954842;99;25713;-83
2021/12/26 10:38:24;;;;;;;25.00;13.85;;;;;;;7.75;39.69;100051.09;2006433;96;25936;-81
2021/12/26 10:42:13;;;;;;;26.40;13.18;;;;;;;7.58;39.80;100049.30;2012831;95;25740;-84
2021/12/26 10:45:46;;;;;;;28.40;14.33;;;;;;;7.43;39.91;100059.22;2068840;93;25903;-83
2021/12/26 10:49:40;;;;;;;20.40;13.13;;;;;;;7.26;40.06;100056.09;2053320;94;25766;-84
2021/12/26 10:53:14;;;;;;;21.48;11.43;;;;;;;7.14;40.19;100053.11;2058974;94;25890;-83
2021/12/26 10:56:50;;;;;;;22.82;12.00;;;;;;;7.07;42.47;100062.81;2059574;93;25771;-83
2021/12/26 11:00:34;;;;;;;22.70;12.47;;;;;;;7.03;43.03;100061.84;1974808;97;25717;-82
2021/12/26 11:04:55;;;;;;;23.00;12.43;;;;;;;6.95;43.01;100065.91;1942114;98;25813;-85
2021/12/26 11:08:52;;;;;;;24.40;14.00;;;;;;;6.87;43.18;100059.56;1928016;99;25930;-83
2021/12/26 11:12:20;;;;;;;20.35;11.97;;;;;;;6.83;43.25;100065.48;1953006;98;25719;-80
2021/12/26 11:20:05;;;;;;;20.12;12.70;;;;;;;6.67;43.31;100073.56;1926841;100;25813;-81
2021/12/26 11:23:44;;;;;;;23.73;11.97;;;;;;;6.61;43.34;100067.74;1921213;101;25788;-85
2021/12/26 11:27:27;;;;;;;22.70;12.23;;;;;;;6.53;43.46;100066.61;1951370;100;26115;-79
2021/12/26 11:31:23;;;;;;;24.35;12.33;;;;;;;6.46;43.49;100068.11;1957451;99;25745;-82
2021/12/26 11:35:17;;;;;;;23.35;12.18;;;;;;;6.41;43.57;100069.64;1953451;100;25872;-80
2021/12/26 11:39:02;;;;;;;19.48;11.70;;;;;;;6.35;43.58;100066.44;2013381;96;26023;-82
2021/12/26 11:47:40;;;;;;;25.05;12.45;;;;;;;6.26;43.65;100066.52;1992349;98;25861;-81
2021/12/26 11:51:35;;;;;;;18.30;11.12;;;;;;;6.23;43.72;100059.94;2002112;96;25859;-81
2021/12/26 12:04:20;;;;;;;18.10;11.68;;;;;;;6.40;43.61;100057.53;1932101;99;25984;-85
2021/12/26 12:11:32;;;;;;;21.52;12.80;;;;;;;6.69;43.48;100039.11;1958248;100;25572;-85
2021/12/26 12:19:34;;;;;;;17.92;10.98;;;;;;;7.14;43.00;100044.45;1965860;99;26163;-84
2021/12/26 12:23:25;;;;;;;;;;;;;;;7.20;42.80;100049.41;1983913;98;25335;-86
2021/12/26 12:27:22;;;;;;;22.87;11.97;;;;;;;7.20;42.71;100052.01;2061222;90;25958;-88
2021/12/26 12:30:55;;;;;;;20.92;11.88;;;;;;;7.13;42.73;100053.95;2138666;86;25861;-82
2021/12/26 12:35:08;;;;;;;;;;;;;;;;;;;;;
2021/12/26 12:39:03;;;;;;;20.17;11.88;;;;;;;6.97;42.80;100059.04;2159778;89;25831;-84
2021/12/26 12:42:19;;;;;;;19.07;11.60;;;;;;;6.96;42.85;100056.41;2182577;88;35147;-81
2021/12/26 12:50:17;;;;;;;19.52;11.18;;;;;;;7.12;42.73;100059.06;2096458;92;26084;-80
2021/12/26 12:54:23;;;;;;;21.75;10.63;;;;;;;7.09;42.72;100045.61;2076951;92;25656;-82
2021/12/26 13:06:15;;;;;;;18.23;10.98;;;;;;;6.95;42.74;100063.31;2095845;93;26022;-80
2021/12/26 13:13:26;;;;;;;18.40;10.98;;;;;;;6.87;42.81;100064.75;2160170;87;25818;-85
2021/12/26 13:17:12;;;;;;;17.98;11.18;;;;;;;6.80;42.84;100060.20;2194008;87;25625;-84
2021/12/26 13:21:19;;;;;;;20.10;11.03;;;;;;;6.72;42.96;100062.95;2155260;90;25474;-82
2021/12/26 13:28:40;;;;;;;18.37;11.15;;;;;;;6.55;43.11;100058.50;2159720;90;25528;-81
2021/12/26 13:32:11;;;;;;;19.98;11.18;;;;;;;6.48;43.19;100056.11;2132336;90;25662;-82
2021/12/26 13:35:38;;;;;;;16.55;11.40;;;;;;;6.41;43.22;100059.28;2190665;89;25527;-82
2021/12/26 13:39:17;;;;;;;19.85;11.10;;;;;;;6.34;43.23;100064.66;2123208;89;27770;-82
2021/12/26 13:42:51;;;;;;;18.60;11.28;;;;;;;6.32;43.30;100066.33;2108394;89;25820;-81
2021/12/26 13:46:36;;;;;;;20.65;10.80;;;;;;;6.37;43.31;100070.36;2265985;85;25465;-84
2021/12/26 13:54:20;;;;;;;15.65;10.10;;;;;;;6.45;43.21;100070.24;2417747;81;25664;-84
2021/12/26 13:57:52;;;;;;;19.70;11.93;;;;;;;6.43;43.22;100071.00;2415227;80;34591;-84
2021/12/26 14:05:21;;;;;;;15.68;10.13;;;;;;;6.31;43.32;100080.50;2355077;78;26365;-85
2021/12/26 14:09:11;;;;;;;17.62;10.78;;;;;;;6.23;43.37;100078.94;2344415;83;25912;-82
2021/12/26 14:16:43;;;;;;;20.45;11.35;;;;;;;6.06;43.45;100096.86;2250012;85;25841;-82
2021/12/26 14:20:25;;;;;;;;;;;;;;;;;;;;;
2021/12/26 14:27:38;;;;;;;19.12;10.55;;;;;;;5.77;43.67;100090.16;2226586;86;25665;-82
2021/12/26 14:31:19;;;;;;;;;;;;;;;;;;;;;
2021/12/26 14:34:49;;;;;;;21.40;11.43;;;;;;;5.57;43.81;100088.09;2151852;90;25759;-82
2021/12/26 14:42:23;;;;;;;18.73;10.35;;;;;;;5.37;43.98;100086.44;2089312;90;25545;-83
2021/12/26 14:46:10;;;;;;;15.15;9.75;;;;;;;5.27;44.08;100090.77;2130978;91;25807;-83
2021/12/26 14:50:29;;;;;;;16.48;9.63;;;;;;;5.19;44.14;100095.61;2008267;97;25779;-81
2021/12/26 14:54:08;;;;;;;16.40;9.60;;;;;;;5.11;44.24;100106.93;1990139;98;25643;-83
2021/12/26 14:58:10;;;;;;;13.18;9.05;;;;;;;5.00;44.35;100105.63;1975446;97;25952;-84
2021/12/26 15:06:17;;;;;;;15.45;8.53;;;;;;;4.86;44.50;100110.59;1952208;98;25871;-83
2021/12/26 15:29:12;;;;;;;15.45;9.65;;;;;;;4.47;44.92;100123.58;1945166;100;25711;-82
2021/12/26 15:33:20;;;;;;;17.90;9.28;;;;;;;4.40;44.98;100124.13;1911580;100;25904;-83
2021/12/26 15:36:56;;;;;;;15.75;8.23;;;;;;;4.35;45.04;100126.48;1864498;103;25412;-83
2021/12/26 15:40:44;;;;;;;18.62;9.65;;;;;;;4.29;45.06;100126.62;1868954;105;25629;-82
2021/12/26 15:44:42;;;;;;;17.87;9.40;;;;;;;4.23;45.06;100128.55;1839124;104;25763;-82
2021/12/26 15:52:16;;;;;;;15.48;9.63;;;;;;;4.13;45.19;100135.39;1867600;103;25902;-83
2021/12/26 15:55:51;;;;;;;16.00;9.58;;;;;;;4.09;45.22;100125.76;1935508;100;25750;-83
2021/12/26 15:59:49;;;;;;;16.40;9.80;;;;;;;4.08;45.26;100130.42;1915687;101;25771;-82
2021/12/26 16:03:26;;;;;;;21.00;10.45;;;;;;;4.02;45.29;100128.47;1948344;100;25613;-81
2021/12/26 16:07:19;;;;;;;;;;;;;;;;;;;;;
2021/12/26 16:10:53;;;;;;;19.48;9.63;;;;;;;3.97;45.36;100135.09;1980484;98;26122;-82
2021/12/26 16:14:34;;;;;;;;;;;;;;;;;;;;;
2021/12/26 16:18:24;;;;;;;15.58;10.25;;;;;;;3.89;45.41;100124.44;2027421;95;25999;-83
2021/12/26 16:22:19;;;;;;;17.15;9.75;;;;;;;3.87;45.44;100132.91;1952826;98;25662;-82
2021/12/26 16:25:53;;;;;;;18.10;10.00;;;;;;;3.84;45.46;100140.49;1954849;98;25939;-82
2021/12/26 16:29:27;;;;;;;23.98;10.95;;;;;;;3.80;45.49;100139.47;1964725;98;25330;-83
2021/12/26 16:33:01;;;;;;;21.10;10.32;;;;;;;3.76;45.51;100144.89;1967488;98;25848;-81
2021/12/26 16:36:24;;;;;;;20.72;10.98;;;;;;;3.74;45.50;100158.10;1841824;104;25799;-83
2021/12/26 16:39:53;;;;;;;19.65;9.73;;;;;;;3.72;45.53;100161.45;1859386;104;25640;-84
2021/12/26 16:43:38;;;;;;;12.90;9.15;;;;;;;3.69;45.53;100167.74;1881849;102;25804;-83
2021/12/26 16:50:46;;;;;;;16.75;10.13;;;;;;;3.65;45.56;100169.70;1837432;104;25837;-84
2021/12/26 16:54:56;;;;;;;18.57;10.40;;;;;;;3.62;45.56;100166.57;1802532;103;25781;-83
2021/12/26 16:58:22;;;;;;;20.02;9.95;;;;;;;3.60;45.57;100173.33;1816384;106;25675;-83
2021/12/26 17:01:53;;;;;;;19.12;10.48;;;;;;;3.58;45.58;100178.84;1874577;102;25154;-82
2021/12/26 17:05:28;;;;;;;17.95;10.82;;;;;;;3.56;45.56;100172.71;1906372;100;26045;-82
2021/12/26 17:09:13;;;;;;;14.53;9.43;;;;;;;3.53;45.58;100177.30;1945631;99;25736;-82
2021/12/26 17:13:02;;;;;;;20.37;10.82;;;;;;;3.51;45.57;100168.64;1924964;96;25839;-82
2021/12/26 17:16:35;;;;;;;17.60;11.05;;;;;;;3.48;45.55;100173.64;1989608;97;25691;-82
2021/12/26 17:20:22;;;;;;;15.40;9.55;;;;;;;3.45;45.55;100173.48;1990662;96;25892;-82
2021/12/26 17:27:45;;;;;;;20.97;12.28;;;;;;;3.41;45.47;100180.97;2009190;93;26165;-81
2021/12/26 17:31:43;;;;;;;25.80;12.37;;;;;;;3.38;45.46;100184.72;2006160;97;25972;-83
2021/12/26 17:35:41;;;;;;;19.62;11.95;;;;;;;3.35;45.46;100179.00;2003963;94;26123;-82
2021/12/26 17:39:23;;;;;;;25.15;12.05;;;;;;;3.30;45.41;100183.91;2036267;95;25578;-83
2021/12/26 17:43:13;;;;;;;26.25;13.00;;;;;;;3.27;45.42;100184.16;2000839;97;25559;-83
2021/12/26 17:46:49;;;;;;;24.32;13.40;;;;;;;3.24;45.42;100186.21;2009751;96;25640;-82
2021/12/26 17:50:21;;;;;;;29.10;13.10;;;;;;;3.23;45.43;100191.27;1973328;98;25852;-84
2021/12/26 17:54:00;;;;;;;23.12;12.03;;;;;;;3.20;45.48;100190.70;1984016;97;25459;-83
2021/12/26 17:57:42;;;;;;;25.48;13.95;;;;;;;3.21;45.48;100196.77;2015266;96;25951;-83
2021/12/26 18:01:09;;;;;;;27.93;14.47;;;;;;;3.19;45.53;100199.25;2033010;94;26181;-85
2021/12/26 18:04:38;;;;;;;26.57;15.10;;;;;;;3.17;45.51;100199.56;2078333;92;26326;-82
2021/12/26 18:08:25;;;;;;;29.87;15.72;;;;;;;3.17;45.54;100201.26;2057067;95;25915;-82
2021/12/26 18:15:31;;;;;;;27.62;16.65;;;;;;;3.14;45.58;100196.86;2091964;92;25673;-82
2021/12/26 18:19:10;;;;;;;29.63;15.53;;;;;;;3.14;45.58;100197.23;2049335;92;26419;-84
2021/12/26 18:22:38;;;;;;;37.88;17.50;;;;;;;3.13;45.58;100204.50;2029691;94;25967;-82
2021/12/26 18:26:25;;;;;;;37.13;19.42;;;;;;;3.11;45.60;100207.42;2056242;93;25731;-83
2021/12/26 18:30:06;;;;;;;42.80;20.57;;;;;;;3.10;45.59;100207.80;2038059;94;25646;-84
2021/12/26 18:33:57;;;;;;;41.53;19.77;;;;;;;3.08;45.62;100218.03;2055300;92;26135;-83
2021/12/26 18:37:34;;;;;;;42.62;20.85;;;;;;;3.06;45.61;100213.20;1996828;95;26951;-82
2021/12/26 18:41:09;;;;;;;40.17;20.00;;;;;;;3.04;45.63;100212.25;1987998;98;25838;-83
2021/12/26 18:44:41;;;;;;;51.53;22.37;;;;;;;3.04;45.63;100215.23;1979749;98;25799;-81
2021/12/26 18:48:19;;;;;;;;;;;;;;;;;;;;;
2021/12/26 18:51:34;;;;;;;44.42;21.90;;;;;;;3.01;45.68;100225.38;1960841;99;25781;-83
2021/12/26 18:55:14;;;;;;;49.93;23.50;;;;;;;3.00;45.67;100222.30;1949322;98;25991;-82
2021/12/26 18:59:07;;;;;;;46.50;23.50;;;;;;;2.99;45.68;100224.41;1970147;97;25907;-82
2021/12/26 19:02:50;;;;;;;49.25;24.30;;;;;;;2.98;45.68;100223.94;2002194;97;25573;-82
2021/12/26 19:06:44;;;;;;;48.52;23.50;;;;;;;2.98;45.68;100229.08;1925802;101;25617;-81
2021/12/26 19:10:26;;;;;;;48.42;24.50;;;;;;;2.96;45.67;100228.98;1918114;101;26170;-83
2021/12/26 19:13:50;;;;;;;48.38;24.43;;;;;;;2.93;45.68;100230.11;1924146;101;25620;-85
2021/12/26 19:21:18;;;;;;;53.13;25.65;;;;;;;2.91;45.67;100228.29;2108912;91;25777;-82
2021/12/26 19:24:56;;;;;;;50.63;25.50;;;;;;;2.89;45.67;100223.05;2121656;91;25629;-84
2021/12/26 19:28:34;;;;;;;52.10;26.48;;;;;;;2.88;45.65;100227.72;2164808;90;25599;-84
2021/12/26 19:32:16;;;;;;;54.05;26.73;;;;;;;2.84;45.66;100230.54;2162483;90;25801;-82
2021/12/26 19:39:48;;;;;;;58.73;28.25;;;;;;;2.81;45.66;100241.08;2085898;91;26090;-83
2021/12/26 19:47:14;;;;;;;55.25;27.25;;;;;;;2.77;45.68;100247.77;2121392;90;25815;-82
2021/12/26 19:50:58;;;;;;;55.58;28.35;;;;;;;2.75;45.64;100244.62;2124720;89;26158;-82
2021/12/26 19:54:29;;;;;;;54.60;27.27;;;;;;;2.73;45.65;100241.95;2135088;89;25844;-82
2021/12/26 19:58:02;;;;;;;;;;;;;;;;;;;;;
2021/12/26 20:01:51;;;;;;;54.35;26.97;;;;;;;2.70;45.66;100236.67;2139682;90;25787;-82
2021/12/26 20:09:04;;;;;;;57.03;26.07;;;;;;;2.70;45.65;100246.05;1984966;96;25840;-84
2021/12/26 20:12:33;;;;;;;61.10;29.55;;;;;;;2.68;45.67;100241.24;1981466;98;32958;-82
2021/12/26 20:16:28;;;;;;;57.13;28.42;;;;;;;2.67;45.67;100236.50;1985383;98;25620;-82
2021/12/26 20:19:41;;;;;;;60.20;30.25;;;;;;;2.67;45.67;100240.77;1980127;99;26127;-83
2021/12/26 20:23:04;;;;;;;60.55;28.07;;;;;;;2.66;45.63;100245.00;1984736;99;25674;-83
2021/12/26 20:26:59;;;;;;;62.93;28.70;;;;;;;2.63;45.62;100238.41;1980727;98;25935;-83
2021/12/26 20:30:35;;;;;;;60.55;28.25;;;;;;;2.64;45.62;100240.20;1946377;99;25227;-83
2021/12/26 20:34:07;;;;;;;56.50;28.23;;;;;;;2.62;45.63;100240.50;1940113;101;26201;-82
2021/12/26 20:37:51;;;;;;;58.45;30.20;;;;;;;2.61;45.63;100238.75;1923217;101;25782;-82